sensor_id;sensor_type;location;lat;lon;timestamp;temperature;humidity
37910;DHT22;23741;49.446;8.754;2022-08-03T00:00:57;25.00;46.30
37910;DHT22;23741;49.446;8.754;2022-08-03T00:02:59;25.00;46.40
37910;DHT22;23741;49.446;8.754;2022-08-03T00:05:01;25.00;46.40
37910;DHT22;23741;49.446;8.754;2022-08-03T00:07:03;25.00;46.50
37910;DHT22;23741;49.446;8.754;2022-08-03T00:09:04;25.00;46.60
37910;DHT22;23741;49.446;8.754;2022-08-03T00:11:06;25.00;46.60
37910;DHT22;23741;49.446;8.754;2022-08-03T00:13:08;25.00;46.60
37910;DHT22;23741;49.446;8.754;2022-08-03T00:15:10;25.00;46.70
37910;DHT22;23741;49.446;8.754;2022-08-03T00:17:17;24.90;46.60
37910;DHT22;23741;49.446;8.754;2022-08-03T00:19:19;25.00;46.70
37910;DHT22;23741;49.446;8.754;2022-08-03T00:21:20;24.90;46.70
37910;DHT22;23741;49.446;8.754;2022-08-03T00:23:22;24.90;46.70
37910;DHT22;23741;49.446;8.754;2022-08-03T00:25:24;24.90;46.70
37910;DHT22;23741;49.446;8.754;2022-08-03T00:27:25;24.90;47.50
37910;DHT22;23741;49.446;8.754;2022-08-03T00:29:29;24.90;46.90
37910;DHT22;23741;49.446;8.754;2022-08-03T00:31:31;24.90;46.90
37910;DHT22;23741;49.446;8.754;2022-08-03T00:33:52;24.90;46.80
37910;DHT22;23741;49.446;8.754;2022-08-03T00:36:00;24.80;46.90
37910;DHT22;23741;49.446;8.754;2022-08-03T00:38:02;24.90;46.90
37910;DHT22;23741;49.446;8.754;2022-08-03T00:40:04;24.90;46.90
37910;DHT22;23741;49.446;8.754;2022-08-03T00:42:06;24.80;46.80
37910;DHT22;23741;49.446;8.754;2022-08-03T00:44:07;24.80;46.80
37910;DHT22;23741;49.446;8.754;2022-08-03T00:46:09;24.80;46.90
37910;DHT22;23741;49.446;8.754;2022-08-03T00:48:11;24.80;46.80
37910;DHT22;23741;49.446;8.754;2022-08-03T00:50:34;24.80;46.90
37910;DHT22;23741;49.446;8.754;2022-08-03T00:52:35;24.80;46.90
37910;DHT22;23741;49.446;8.754;2022-08-03T00:54:38;24.70;46.80
37910;DHT22;23741;49.446;8.754;2022-08-03T00:56:40;24.80;46.90
37910;DHT22;23741;49.446;8.754;2022-08-03T00:59:00;24.70;47.00
37910;DHT22;23741;49.446;8.754;2022-08-03T01:01:03;24.70;46.90
37910;DHT22;23741;49.446;8.754;2022-08-03T01:03:08;24.70;46.90
37910;DHT22;23741;49.446;8.754;2022-08-03T01:05:10;24.70;46.80
37910;DHT22;23741;49.446;8.754;2022-08-03T01:07:16;24.70;47.00
37910;DHT22;23741;49.446;8.754;2022-08-03T01:09:19;24.60;47.00
37910;DHT22;23741;49.446;8.754;2022-08-03T01:11:35;24.60;47.10
37910;DHT22;23741;49.446;8.754;2022-08-03T01:16:23;24.60;47.30
37910;DHT22;23741;49.446;8.754;2022-08-03T01:18:40;24.60;47.10
37910;DHT22;23741;49.446;8.754;2022-08-03T01:20:49;24.60;47.10
37910;DHT22;23741;49.446;8.754;2022-08-03T01:25:21;24.60;47.30
37910;DHT22;23741;49.446;8.754;2022-08-03T01:27:28;24.60;47.40
37910;DHT22;23741;49.446;8.754;2022-08-03T01:31:54;24.50;47.40
37910;DHT22;23741;49.446;8.754;2022-08-03T01:34:18;24.50;47.40
37910;DHT22;23741;49.446;8.754;2022-08-03T01:36:21;24.50;47.30
37910;DHT22;23741;49.446;8.754;2022-08-03T01:40:26;24.50;47.50
37910;DHT22;23741;49.446;8.754;2022-08-03T01:42:29;24.50;47.60
37910;DHT22;23741;49.446;8.754;2022-08-03T01:44:36;24.50;47.50
37910;DHT22;23741;49.446;8.754;2022-08-03T01:46:39;24.40;47.50
37910;DHT22;23741;49.446;8.754;2022-08-03T01:48:48;24.50;47.70
37910;DHT22;23741;49.446;8.754;2022-08-03T01:50:50;24.40;47.50
37910;DHT22;23741;49.446;8.754;2022-08-03T01:52:52;24.40;47.60
37910;DHT22;23741;49.446;8.754;2022-08-03T01:54:55;24.40;47.50
37910;DHT22;23741;49.446;8.754;2022-08-03T01:56:57;24.40;47.80
37910;DHT22;23741;49.446;8.754;2022-08-03T01:58:59;24.40;47.80
37910;DHT22;23741;49.446;8.754;2022-08-03T02:01:02;24.40;47.60
37910;DHT22;23741;49.446;8.754;2022-08-03T02:03:04;24.40;47.80
37910;DHT22;23741;49.446;8.754;2022-08-03T02:05:08;24.40;47.90
37910;DHT22;23741;49.446;8.754;2022-08-03T02:07:11;24.30;47.80
37910;DHT22;23741;49.446;8.754;2022-08-03T02:09:14;24.30;47.80
37910;DHT22;23741;49.446;8.754;2022-08-03T02:11:17;24.30;48.00
37910;DHT22;23741;49.446;8.754;2022-08-03T02:13:18;24.30;47.90
37910;DHT22;23741;49.446;8.754;2022-08-03T02:15:21;24.30;48.20
37910;DHT22;23741;49.446;8.754;2022-08-03T02:17:24;24.30;48.20
37910;DHT22;23741;49.446;8.754;2022-08-03T02:19:41;24.30;48.90
37910;DHT22;23741;49.446;8.754;2022-08-03T02:21:43;24.30;48.20
37910;DHT22;23741;49.446;8.754;2022-08-03T02:24:02;24.30;48.20
37910;DHT22;23741;49.446;8.754;2022-08-03T02:26:05;24.30;48.30
37910;DHT22;23741;49.446;8.754;2022-08-03T02:28:09;24.30;48.10
37910;DHT22;23741;49.446;8.754;2022-08-03T02:30:12;24.30;48.20
37910;DHT22;23741;49.446;8.754;2022-08-03T02:32:16;24.20;48.00
37910;DHT22;23741;49.446;8.754;2022-08-03T02:34:18;24.20;48.30
37910;DHT22;23741;49.446;8.754;2022-08-03T02:36:22;24.20;48.30
37910;DHT22;23741;49.446;8.754;2022-08-03T02:38:27;24.20;48.30
37910;DHT22;23741;49.446;8.754;2022-08-03T02:40:29;24.20;48.40
37910;DHT22;23741;49.446;8.754;2022-08-03T02:42:31;24.20;48.30
37910;DHT22;23741;49.446;8.754;2022-08-03T02:44:33;24.20;48.50
37910;DHT22;23741;49.446;8.754;2022-08-03T02:46:40;24.10;48.30
37910;DHT22;23741;49.446;8.754;2022-08-03T02:48:43;24.10;48.30
37910;DHT22;23741;49.446;8.754;2022-08-03T02:50:46;24.20;48.40
37910;DHT22;23741;49.446;8.754;2022-08-03T02:52:48;24.20;48.50
37910;DHT22;23741;49.446;8.754;2022-08-03T02:54:51;24.10;48.60
37910;DHT22;23741;49.446;8.754;2022-08-03T02:56:53;24.10;48.60
37910;DHT22;23741;49.446;8.754;2022-08-03T02:58:57;24.10;48.70
37910;DHT22;23741;49.446;8.754;2022-08-03T03:00:59;24.10;48.60
37910;DHT22;23741;49.446;8.754;2022-08-03T03:03:02;24.10;48.50
37910;DHT22;23741;49.446;8.754;2022-08-03T03:05:04;24.10;48.70
37910;DHT22;23741;49.446;8.754;2022-08-03T03:07:26;24.10;48.70
37910;DHT22;23741;49.446;8.754;2022-08-03T03:09:32;24.10;48.60
37910;DHT22;23741;49.446;8.754;2022-08-03T03:11:42;24.10;48.70
37910;DHT22;23741;49.446;8.754;2022-08-03T03:13:44;24.10;48.60
37910;DHT22;23741;49.446;8.754;2022-08-03T03:15:46;24.10;48.80
37910;DHT22;23741;49.446;8.754;2022-08-03T03:17:49;24.10;48.80
37910;DHT22;23741;49.446;8.754;2022-08-03T03:19:52;24.10;48.90
37910;DHT22;23741;49.446;8.754;2022-08-03T03:21:54;24.00;48.70
37910;DHT22;23741;49.446;8.754;2022-08-03T03:23:56;24.00;48.70
37910;DHT22;23741;49.446;8.754;2022-08-03T03:25:59;24.00;48.70
37910;DHT22;23741;49.446;8.754;2022-08-03T03:28:02;24.10;48.90
37910;DHT22;23741;49.446;8.754;2022-08-03T03:30:07;24.00;48.80
37910;DHT22;23741;49.446;8.754;2022-08-03T03:32:09;24.00;48.90
37910;DHT22;23741;49.446;8.754;2022-08-03T03:34:11;24.00;48.90
37910;DHT22;23741;49.446;8.754;2022-08-03T03:36:13;24.00;48.80
37910;DHT22;23741;49.446;8.754;2022-08-03T03:38:14;24.00;49.00
37910;DHT22;23741;49.446;8.754;2022-08-03T03:40:16;24.00;49.00
37910;DHT22;23741;49.446;8.754;2022-08-03T03:42:18;24.00;49.10
37910;DHT22;23741;49.446;8.754;2022-08-03T03:44:20;24.00;49.70
37910;DHT22;23741;49.446;8.754;2022-08-03T03:46:21;24.00;49.60
37910;DHT22;23741;49.446;8.754;2022-08-03T03:48:23;24.00;48.80
37910;DHT22;23741;49.446;8.754;2022-08-03T03:50:25;24.00;48.90
37910;DHT22;23741;49.446;8.754;2022-08-03T03:52:27;23.90;48.80
37910;DHT22;23741;49.446;8.754;2022-08-03T03:54:41;23.90;49.00
37910;DHT22;23741;49.446;8.754;2022-08-03T03:56:43;23.90;49.10
37910;DHT22;23741;49.446;8.754;2022-08-03T03:58:45;23.90;48.80
37910;DHT22;23741;49.446;8.754;2022-08-03T04:00:47;23.90;48.80
37910;DHT22;23741;49.446;8.754;2022-08-03T04:02:50;23.90;48.90
37910;DHT22;23741;49.446;8.754;2022-08-03T04:04:51;23.90;48.80
37910;DHT22;23741;49.446;8.754;2022-08-03T04:07:12;23.90;49.00
37910;DHT22;23741;49.446;8.754;2022-08-03T04:09:33;23.90;49.00
37910;DHT22;23741;49.446;8.754;2022-08-03T04:11:54;23.90;49.10
37910;DHT22;23741;49.446;8.754;2022-08-03T04:16:03;23.90;49.90
37910;DHT22;23741;49.446;8.754;2022-08-03T04:18:05;23.80;49.10
37910;DHT22;23741;49.446;8.754;2022-08-03T04:20:07;23.90;49.00
37910;DHT22;23741;49.446;8.754;2022-08-03T04:22:10;23.90;49.20
37910;DHT22;23741;49.446;8.754;2022-08-03T04:24:12;23.80;49.00
37910;DHT22;23741;49.446;8.754;2022-08-03T04:26:16;23.80;49.20
37910;DHT22;23741;49.446;8.754;2022-08-03T04:28:19;23.80;49.20
37910;DHT22;23741;49.446;8.754;2022-08-03T04:30:32;23.80;49.20
37910;DHT22;23741;49.446;8.754;2022-08-03T04:32:35;23.80;49.10
37910;DHT22;23741;49.446;8.754;2022-08-03T04:34:38;23.80;49.30
37910;DHT22;23741;49.446;8.754;2022-08-03T04:36:43;23.80;49.30
37910;DHT22;23741;49.446;8.754;2022-08-03T04:39:00;23.80;49.40
37910;DHT22;23741;49.446;8.754;2022-08-03T04:41:03;23.80;49.30
37910;DHT22;23741;49.446;8.754;2022-08-03T04:43:05;23.80;49.20
37910;DHT22;23741;49.446;8.754;2022-08-03T04:45:10;23.80;49.20
37910;DHT22;23741;49.446;8.754;2022-08-03T04:47:12;23.80;49.30
37910;DHT22;23741;49.446;8.754;2022-08-03T04:49:14;23.80;49.40
37910;DHT22;23741;49.446;8.754;2022-08-03T04:51:16;23.80;49.40
37910;DHT22;23741;49.446;8.754;2022-08-03T04:53:18;23.80;49.30
37910;DHT22;23741;49.446;8.754;2022-08-03T04:55:30;23.80;49.40
37910;DHT22;23741;49.446;8.754;2022-08-03T04:57:31;23.80;49.50
37910;DHT22;23741;49.446;8.754;2022-08-03T04:59:33;23.80;49.40
37910;DHT22;23741;49.446;8.754;2022-08-03T05:01:39;23.80;49.40
37910;DHT22;23741;49.446;8.754;2022-08-03T05:03:42;23.80;49.50
37910;DHT22;23741;49.446;8.754;2022-08-03T05:05:44;23.80;49.60
37910;DHT22;23741;49.446;8.754;2022-08-03T05:07:51;23.80;49.80
37910;DHT22;23741;49.446;8.754;2022-08-03T05:09:53;23.80;49.60
37910;DHT22;23741;49.446;8.754;2022-08-03T05:12:04;23.80;49.70
37910;DHT22;23741;49.446;8.754;2022-08-03T05:14:06;23.80;49.80
37910;DHT22;23741;49.446;8.754;2022-08-03T05:16:07;23.80;49.80
37910;DHT22;23741;49.446;8.754;2022-08-03T05:18:09;23.80;49.90
37910;DHT22;23741;49.446;8.754;2022-08-03T05:20:14;23.80;49.80
37910;DHT22;23741;49.446;8.754;2022-08-03T05:22:19;23.90;50.00
37910;DHT22;23741;49.446;8.754;2022-08-03T05:24:21;23.90;49.80
37910;DHT22;23741;49.446;8.754;2022-08-03T05:26:23;23.90;49.90
37910;DHT22;23741;49.446;8.754;2022-08-03T05:28:24;23.80;49.80
37910;DHT22;23741;49.446;8.754;2022-08-03T05:30:26;23.80;50.00
37910;DHT22;23741;49.446;8.754;2022-08-03T05:32:34;23.90;50.00
37910;DHT22;23741;49.446;8.754;2022-08-03T05:34:37;23.90;50.10
37910;DHT22;23741;49.446;8.754;2022-08-03T05:36:39;23.90;50.00
37910;DHT22;23741;49.446;8.754;2022-08-03T05:38:40;23.90;50.20
37910;DHT22;23741;49.446;8.754;2022-08-03T05:40:42;23.90;50.00
37910;DHT22;23741;49.446;8.754;2022-08-03T05:42:58;23.90;50.20
37910;DHT22;23741;49.446;8.754;2022-08-03T05:45:02;23.90;50.20
37910;DHT22;23741;49.446;8.754;2022-08-03T05:47:04;23.90;50.10
37910;DHT22;23741;49.446;8.754;2022-08-03T05:49:06;23.90;50.10
37910;DHT22;23741;49.446;8.754;2022-08-03T05:51:08;23.90;50.30
37910;DHT22;23741;49.446;8.754;2022-08-03T05:53:12;24.00;50.10
37910;DHT22;23741;49.446;8.754;2022-08-03T05:55:15;24.00;50.10
37910;DHT22;23741;49.446;8.754;2022-08-03T05:57:18;24.00;50.10
37910;DHT22;23741;49.446;8.754;2022-08-03T05:59:22;24.00;50.20
37910;DHT22;23741;49.446;8.754;2022-08-03T06:01:38;24.00;50.10
37910;DHT22;23741;49.446;8.754;2022-08-03T06:03:40;24.00;50.10
37910;DHT22;23741;49.446;8.754;2022-08-03T06:05:42;24.00;50.10
37910;DHT22;23741;49.446;8.754;2022-08-03T06:08:01;24.10;50.10
37910;DHT22;23741;49.446;8.754;2022-08-03T06:10:03;24.10;50.10
37910;DHT22;23741;49.446;8.754;2022-08-03T06:12:25;24.10;50.10
37910;DHT22;23741;49.446;8.754;2022-08-03T06:14:27;24.10;50.10
37910;DHT22;23741;49.446;8.754;2022-08-03T06:16:29;24.10;50.00
37910;DHT22;23741;49.446;8.754;2022-08-03T06:18:31;24.10;50.00
37910;DHT22;23741;49.446;8.754;2022-08-03T06:20:32;24.20;50.00
37910;DHT22;23741;49.446;8.754;2022-08-03T06:22:35;24.20;50.00
37910;DHT22;23741;49.446;8.754;2022-08-03T06:24:51;24.20;50.00
37910;DHT22;23741;49.446;8.754;2022-08-03T06:26:55;24.20;49.70
37910;DHT22;23741;49.446;8.754;2022-08-03T06:28:57;24.20;49.50
37910;DHT22;23741;49.446;8.754;2022-08-03T06:31:00;24.30;49.70
37910;DHT22;23741;49.446;8.754;2022-08-03T06:33:02;24.30;49.80
37910;DHT22;23741;49.446;8.754;2022-08-03T06:35:04;24.30;49.80
37910;DHT22;23741;49.446;8.754;2022-08-03T06:37:06;24.30;49.70
37910;DHT22;23741;49.446;8.754;2022-08-03T06:39:08;24.40;49.70
37910;DHT22;23741;49.446;8.754;2022-08-03T06:41:10;24.40;49.80
37910;DHT22;23741;49.446;8.754;2022-08-03T06:43:11;24.40;49.90
37910;DHT22;23741;49.446;8.754;2022-08-03T06:45:16;24.40;49.70
37910;DHT22;23741;49.446;8.754;2022-08-03T06:47:18;24.50;49.80
37910;DHT22;23741;49.446;8.754;2022-08-03T06:49:20;24.50;49.60
37910;DHT22;23741;49.446;8.754;2022-08-03T06:51:21;24.50;49.60
37910;DHT22;23741;49.446;8.754;2022-08-03T06:53:44;24.60;49.60
37910;DHT22;23741;49.446;8.754;2022-08-03T06:55:45;24.60;49.50
37910;DHT22;23741;49.446;8.754;2022-08-03T06:57:53;24.70;49.60
37910;DHT22;23741;49.446;8.754;2022-08-03T07:00:00;24.70;49.40
37910;DHT22;23741;49.446;8.754;2022-08-03T07:02:12;24.70;49.30
37910;DHT22;23741;49.446;8.754;2022-08-03T07:04:19;24.70;49.10
37910;DHT22;23741;49.446;8.754;2022-08-03T07:06:21;24.70;49.00
37910;DHT22;23741;49.446;8.754;2022-08-03T07:08:23;24.80;48.90
37910;DHT22;23741;49.446;8.754;2022-08-03T07:10:34;24.90;48.90
37910;DHT22;23741;49.446;8.754;2022-08-03T07:12:37;24.90;48.90
37910;DHT22;23741;49.446;8.754;2022-08-03T07:14:57;24.90;48.90
37910;DHT22;23741;49.446;8.754;2022-08-03T07:17:02;25.00;48.80
37910;DHT22;23741;49.446;8.754;2022-08-03T07:19:11;25.00;48.80
37910;DHT22;23741;49.446;8.754;2022-08-03T07:21:13;25.10;48.70
37910;DHT22;23741;49.446;8.754;2022-08-03T07:23:17;25.10;48.60
37910;DHT22;23741;49.446;8.754;2022-08-03T07:25:20;25.20;48.60
37910;DHT22;23741;49.446;8.754;2022-08-03T07:27:21;25.20;48.50
37910;DHT22;23741;49.446;8.754;2022-08-03T07:29:23;25.20;48.50
37910;DHT22;23741;49.446;8.754;2022-08-03T07:31:25;25.30;48.50
37910;DHT22;23741;49.446;8.754;2022-08-03T07:33:27;25.30;48.40
37910;DHT22;23741;49.446;8.754;2022-08-03T07:35:29;25.40;48.40
37910;DHT22;23741;49.446;8.754;2022-08-03T07:37:30;25.40;48.40
37910;DHT22;23741;49.446;8.754;2022-08-03T07:39:32;25.40;48.30
37910;DHT22;23741;49.446;8.754;2022-08-03T07:41:34;25.50;48.30
37910;DHT22;23741;49.446;8.754;2022-08-03T07:43:36;25.50;48.30
37910;DHT22;23741;49.446;8.754;2022-08-03T07:45:37;25.60;48.30
37910;DHT22;23741;49.446;8.754;2022-08-03T07:47:39;25.60;48.20
37910;DHT22;23741;49.446;8.754;2022-08-03T07:49:46;25.60;48.20
37910;DHT22;23741;49.446;8.754;2022-08-03T07:51:48;25.70;48.20
37910;DHT22;23741;49.446;8.754;2022-08-03T07:54:10;25.70;48.20
37910;DHT22;23741;49.446;8.754;2022-08-03T07:56:13;25.80;48.20
37910;DHT22;23741;49.446;8.754;2022-08-03T07:58:14;25.90;48.20
37910;DHT22;23741;49.446;8.754;2022-08-03T08:00:24;25.90;48.10
37910;DHT22;23741;49.446;8.754;2022-08-03T08:02:26;25.90;48.10
37910;DHT22;23741;49.446;8.754;2022-08-03T08:04:27;26.00;48.10
37910;DHT22;23741;49.446;8.754;2022-08-03T08:06:29;26.00;48.10
37910;DHT22;23741;49.446;8.754;2022-08-03T08:08:33;26.10;48.00
37910;DHT22;23741;49.446;8.754;2022-08-03T08:10:35;26.10;48.00
37910;DHT22;23741;49.446;8.754;2022-08-03T08:12:37;26.20;48.10
37910;DHT22;23741;49.446;8.754;2022-08-03T08:14:39;26.20;48.10
37910;DHT22;23741;49.446;8.754;2022-08-03T08:16:42;26.30;48.00
37910;DHT22;23741;49.446;8.754;2022-08-03T08:18:43;26.30;48.00
37910;DHT22;23741;49.446;8.754;2022-08-03T08:20:45;26.30;48.00
37910;DHT22;23741;49.446;8.754;2022-08-03T08:22:47;26.40;48.00
37910;DHT22;23741;49.446;8.754;2022-08-03T08:24:52;26.50;48.00
37910;DHT22;23741;49.446;8.754;2022-08-03T08:26:55;26.50;48.00
37910;DHT22;23741;49.446;8.754;2022-08-03T08:28:57;26.60;48.00
37910;DHT22;23741;49.446;8.754;2022-08-03T08:30:59;26.60;47.90
37910;DHT22;23741;49.446;8.754;2022-08-03T08:33:01;26.60;47.90
37910;DHT22;23741;49.446;8.754;2022-08-03T08:35:03;26.70;47.90
37910;DHT22;23741;49.446;8.754;2022-08-03T08:37:05;26.80;48.00
37910;DHT22;23741;49.446;8.754;2022-08-03T08:39:07;26.80;47.90
37910;DHT22;23741;49.446;8.754;2022-08-03T08:41:12;26.80;47.90
37910;DHT22;23741;49.446;8.754;2022-08-03T08:43:14;26.90;48.00
37910;DHT22;23741;49.446;8.754;2022-08-03T08:45:16;26.90;47.80
37910;DHT22;23741;49.446;8.754;2022-08-03T08:47:22;27.00;47.90
37910;DHT22;23741;49.446;8.754;2022-08-03T08:49:25;27.10;47.90
37910;DHT22;23741;49.446;8.754;2022-08-03T08:51:29;27.10;47.90
37910;DHT22;23741;49.446;8.754;2022-08-03T08:53:52;27.20;47.90
37910;DHT22;23741;49.446;8.754;2022-08-03T08:55:56;27.30;47.90
37910;DHT22;23741;49.446;8.754;2022-08-03T08:58:03;27.30;47.80
37910;DHT22;23741;49.446;8.754;2022-08-03T09:00:07;27.40;47.70
37910;DHT22;23741;49.446;8.754;2022-08-03T09:02:15;27.40;47.70
37910;DHT22;23741;49.446;8.754;2022-08-03T09:04:17;27.50;47.70
37910;DHT22;23741;49.446;8.754;2022-08-03T09:06:22;27.50;47.40
37910;DHT22;23741;49.446;8.754;2022-08-03T09:08:24;27.60;47.60
37910;DHT22;23741;49.446;8.754;2022-08-03T09:10:26;27.60;47.50
37910;DHT22;23741;49.446;8.754;2022-08-03T09:12:27;27.70;47.60
37910;DHT22;23741;49.446;8.754;2022-08-03T09:14:43;27.80;47.60
37910;DHT22;23741;49.446;8.754;2022-08-03T09:17:04;27.80;47.50
37910;DHT22;23741;49.446;8.754;2022-08-03T09:19:11;27.90;47.50
37910;DHT22;23741;49.446;8.754;2022-08-03T09:23:42;28.00;47.30
37910;DHT22;23741;49.446;8.754;2022-08-03T09:26:01;28.10;47.30
37910;DHT22;23741;49.446;8.754;2022-08-03T09:28:12;28.20;47.30
37910;DHT22;23741;49.446;8.754;2022-08-03T09:30:35;28.20;47.10
37910;DHT22;23741;49.446;8.754;2022-08-03T09:32:37;28.30;47.70
37910;DHT22;23741;49.446;8.754;2022-08-03T09:34:39;28.40;47.20
37910;DHT22;23741;49.446;8.754;2022-08-03T09:38:43;28.50;47.00
37910;DHT22;23741;49.446;8.754;2022-08-03T09:41:01;28.60;47.00
37910;DHT22;23741;49.446;8.754;2022-08-03T09:43:02;28.60;46.70
37910;DHT22;23741;49.446;8.754;2022-08-03T09:45:04;28.70;46.70
37910;DHT22;23741;49.446;8.754;2022-08-03T09:47:06;28.80;46.60
37910;DHT22;23741;49.446;8.754;2022-08-03T09:49:09;28.80;46.60
37910;DHT22;23741;49.446;8.754;2022-08-03T09:51:12;28.90;46.60
37910;DHT22;23741;49.446;8.754;2022-08-03T09:53:42;29.00;46.70
37910;DHT22;23741;49.446;8.754;2022-08-03T09:56:00;29.00;46.30
37910;DHT22;23741;49.446;8.754;2022-08-03T09:58:23;29.10;46.40
37910;DHT22;23741;49.446;8.754;2022-08-03T10:00:25;29.20;46.30
37910;DHT22;23741;49.446;8.754;2022-08-03T10:02:27;29.30;46.20
37910;DHT22;23741;49.446;8.754;2022-08-03T10:04:29;29.30;46.20
37910;DHT22;23741;49.446;8.754;2022-08-03T10:06:30;29.40;46.30
37910;DHT22;23741;49.446;8.754;2022-08-03T10:08:32;29.50;46.20
37910;DHT22;23741;49.446;8.754;2022-08-03T10:10:41;29.50;46.20
37910;DHT22;23741;49.446;8.754;2022-08-03T10:12:43;29.60;46.20
37910;DHT22;23741;49.446;8.754;2022-08-03T10:14:46;29.70;46.00
37910;DHT22;23741;49.446;8.754;2022-08-03T10:16:48;29.70;45.60
37910;DHT22;23741;49.446;8.754;2022-08-03T10:18:50;29.80;45.60
37910;DHT22;23741;49.446;8.754;2022-08-03T10:20:52;29.90;45.40
37910;DHT22;23741;49.446;8.754;2022-08-03T10:22:55;29.90;45.60
37910;DHT22;23741;49.446;8.754;2022-08-03T10:24:59;30.00;45.60
37910;DHT22;23741;49.446;8.754;2022-08-03T10:27:07;30.00;45.60
37910;DHT22;23741;49.446;8.754;2022-08-03T10:29:16;30.10;45.80
37910;DHT22;23741;49.446;8.754;2022-08-03T10:31:19;30.20;45.80
37910;DHT22;23741;49.446;8.754;2022-08-03T10:33:23;30.30;45.80
37910;DHT22;23741;49.446;8.754;2022-08-03T10:35:49;30.40;45.80
37910;DHT22;23741;49.446;8.754;2022-08-03T10:38:02;30.50;46.00
37910;DHT22;23741;49.446;8.754;2022-08-03T10:40:04;30.50;45.80
37910;DHT22;23741;49.446;8.754;2022-08-03T10:42:07;30.60;46.00
37910;DHT22;23741;49.446;8.754;2022-08-03T10:44:19;30.70;45.80
37910;DHT22;23741;49.446;8.754;2022-08-03T10:46:21;30.80;46.00
37910;DHT22;23741;49.446;8.754;2022-08-03T10:48:22;30.90;45.80
37910;DHT22;23741;49.446;8.754;2022-08-03T10:50:25;31.00;45.90
37910;DHT22;23741;49.446;8.754;2022-08-03T10:52:28;31.10;45.80
37910;DHT22;23741;49.446;8.754;2022-08-03T10:54:37;31.20;45.70
37910;DHT22;23741;49.446;8.754;2022-08-03T10:56:59;31.30;45.80
37910;DHT22;23741;49.446;8.754;2022-08-03T11:01:53;31.50;45.70
37910;DHT22;23741;49.446;8.754;2022-08-03T11:06:14;31.70;45.20
37910;DHT22;23741;49.446;8.754;2022-08-03T11:08:25;31.80;45.50
37910;DHT22;23741;49.446;8.754;2022-08-03T11:10:29;31.90;44.70
37910;DHT22;23741;49.446;8.754;2022-08-03T11:12:31;32.00;45.10
37910;DHT22;23741;49.446;8.754;2022-08-03T11:14:44;32.10;45.20
37910;DHT22;23741;49.446;8.754;2022-08-03T11:16:49;32.20;45.10
37910;DHT22;23741;49.446;8.754;2022-08-03T11:18:59;32.20;44.90
37910;DHT22;23741;49.446;8.754;2022-08-03T11:21:03;32.30;44.90
37910;DHT22;23741;49.446;8.754;2022-08-03T11:23:05;32.40;44.80
37910;DHT22;23741;49.446;8.754;2022-08-03T11:25:07;32.50;44.80
37910;DHT22;23741;49.446;8.754;2022-08-03T11:27:29;32.50;44.70
37910;DHT22;23741;49.446;8.754;2022-08-03T11:29:31;32.60;44.70
37910;DHT22;23741;49.446;8.754;2022-08-03T11:34:08;32.80;44.50
37910;DHT22;23741;49.446;8.754;2022-08-03T11:36:10;32.80;44.10
37910;DHT22;23741;49.446;8.754;2022-08-03T11:38:12;32.90;43.80
37910;DHT22;23741;49.446;8.754;2022-08-03T11:40:31;32.90;44.00
37910;DHT22;23741;49.446;8.754;2022-08-03T11:44:38;33.10;43.90
37910;DHT22;23741;49.446;8.754;2022-08-03T11:46:40;33.20;43.70
37910;DHT22;23741;49.446;8.754;2022-08-03T11:48:43;33.30;44.10
37910;DHT22;23741;49.446;8.754;2022-08-03T11:50:45;33.30;43.80
37910;DHT22;23741;49.446;8.754;2022-08-03T11:52:47;33.40;43.90
37910;DHT22;23741;49.446;8.754;2022-08-03T11:54:49;33.50;43.40
37910;DHT22;23741;49.446;8.754;2022-08-03T11:56:57;33.60;43.60
37910;DHT22;23741;49.446;8.754;2022-08-03T11:58:59;33.70;43.50
37910;DHT22;23741;49.446;8.754;2022-08-03T12:01:21;33.80;43.90
37910;DHT22;23741;49.446;8.754;2022-08-03T12:03:23;33.90;43.80
37910;DHT22;23741;49.446;8.754;2022-08-03T12:05:35;34.00;44.00
37910;DHT22;23741;49.446;8.754;2022-08-03T12:07:38;34.10;44.10
37910;DHT22;23741;49.446;8.754;2022-08-03T12:10:05;34.20;43.60
37910;DHT22;23741;49.446;8.754;2022-08-03T12:12:07;34.30;43.50
37910;DHT22;23741;49.446;8.754;2022-08-03T12:14:10;34.40;43.30
37910;DHT22;23741;49.446;8.754;2022-08-03T12:16:36;34.50;42.90
37910;DHT22;23741;49.446;8.754;2022-08-03T12:18:38;34.60;43.10
37910;DHT22;23741;49.446;8.754;2022-08-03T12:20:40;34.70;42.90
37910;DHT22;23741;49.446;8.754;2022-08-03T12:22:42;34.70;42.70
37910;DHT22;23741;49.446;8.754;2022-08-03T12:24:44;34.80;42.40
37910;DHT22;23741;49.446;8.754;2022-08-03T12:26:49;34.90;42.60
37910;DHT22;23741;49.446;8.754;2022-08-03T12:29:00;35.00;42.60
37910;DHT22;23741;49.446;8.754;2022-08-03T12:31:02;35.10;42.50
37910;DHT22;23741;49.446;8.754;2022-08-03T12:33:15;35.20;42.70
37910;DHT22;23741;49.446;8.754;2022-08-03T12:35:21;35.20;42.50
37910;DHT22;23741;49.446;8.754;2022-08-03T12:37:24;35.30;42.40
37910;DHT22;23741;49.446;8.754;2022-08-03T12:39:26;35.40;42.60
37910;DHT22;23741;49.446;8.754;2022-08-03T12:41:32;35.50;42.50
37910;DHT22;23741;49.446;8.754;2022-08-03T12:43:35;35.50;42.00
37910;DHT22;23741;49.446;8.754;2022-08-03T12:45:40;35.60;42.00
37910;DHT22;23741;49.446;8.754;2022-08-03T12:47:49;35.70;42.00
37910;DHT22;23741;49.446;8.754;2022-08-03T12:49:51;35.70;41.20
37910;DHT22;23741;49.446;8.754;2022-08-03T12:53:55;35.90;41.60
37910;DHT22;23741;49.446;8.754;2022-08-03T12:56:05;36.00;41.50
37910;DHT22;23741;49.446;8.754;2022-08-03T12:58:07;36.10;41.60
37910;DHT22;23741;49.446;8.754;2022-08-03T13:00:17;36.20;41.00
37910;DHT22;23741;49.446;8.754;2022-08-03T13:02:30;36.20;41.50
37910;DHT22;23741;49.446;8.754;2022-08-03T13:04:34;36.30;40.90
37910;DHT22;23741;49.446;8.754;2022-08-03T13:06:36;36.40;41.10
37910;DHT22;23741;49.446;8.754;2022-08-03T13:08:38;36.50;40.60
37910;DHT22;23741;49.446;8.754;2022-08-03T13:10:40;36.50;40.70
37910;DHT22;23741;49.446;8.754;2022-08-03T13:12:47;36.60;40.80
37910;DHT22;23741;49.446;8.754;2022-08-03T13:14:53;36.70;40.70
37910;DHT22;23741;49.446;8.754;2022-08-03T13:16:55;36.70;40.80
37910;DHT22;23741;49.446;8.754;2022-08-03T13:18:57;36.80;40.70
37910;DHT22;23741;49.446;8.754;2022-08-03T13:20:59;36.90;40.60
37910;DHT22;23741;49.446;8.754;2022-08-03T13:23:00;36.90;40.00
37910;DHT22;23741;49.446;8.754;2022-08-03T13:25:02;37.00;39.50
37910;DHT22;23741;49.446;8.754;2022-08-03T13:27:04;37.00;39.70
37910;DHT22;23741;49.446;8.754;2022-08-03T13:29:27;37.10;40.20
37910;DHT22;23741;49.446;8.754;2022-08-03T13:31:30;37.10;39.80
37910;DHT22;23741;49.446;8.754;2022-08-03T13:33:31;37.20;39.10
37910;DHT22;23741;49.446;8.754;2022-08-03T13:35:33;37.20;39.50
37910;DHT22;23741;49.446;8.754;2022-08-03T13:37:35;37.20;39.40